sensor_id;sensor_type;location;lat;lon;timestamp;P1;P2;P0
49343;PMS5003;35210;41.606;-87.602;2023-06-14T00:02:26;22.20;21.20;14.20
49343;PMS5003;35210;41.606;-87.602;2023-06-14T00:04:54;20.20;19.80;12.40
49343;PMS5003;35210;41.606;-87.602;2023-06-14T00:07:22;25.80;23.60;15.20
49343;PMS5003;35210;41.606;-87.602;2023-06-14T00:10:03;26.00;23.20;15.20
49343;PMS5003;35210;41.606;-87.602;2023-06-14T00:12:32;28.20;26.80;17.00
49343;PMS5003;35210;41.606;-87.602;2023-06-14T00:15:00;28.60;25.20;16.40
49343;PMS5003;35210;41.606;-87.602;2023-06-14T00:17:28;29.20;25.40;17.20
49343;PMS5003;35210;41.606;-87.602;2023-06-14T00:19:57;23.60;20.40;15.80
49343;PMS5003;35210;41.606;-87.602;2023-06-14T00:22:26;26.40;26.40;17.00
49343;PMS5003;35210;41.606;-87.602;2023-06-14T00:24:56;30.00;28.00;16.60
49343;PMS5003;35210;41.606;-87.602;2023-06-14T00:27:26;26.40;26.40;16.60
49343;PMS5003;35210;41.606;-87.602;2023-06-14T00:29:54;27.40;26.00;17.20
49343;PMS5003;35210;41.606;-87.602;2023-06-14T00:32:22;27.20;27.20;17.00
49343;PMS5003;35210;41.606;-87.602;2023-06-14T00:34:51;32.60;29.20;19.60
49343;PMS5003;35210;41.606;-87.602;2023-06-14T00:37:19;29.60;28.60;18.00
49343;PMS5003;35210;41.606;-87.602;2023-06-14T00:39:47;33.40;29.00;18.60
49343;PMS5003;35210;41.606;-87.602;2023-06-14T00:42:23;32.40;30.00;20.00
49343;PMS5003;35210;41.606;-87.602;2023-06-14T00:44:53;27.60;25.60;18.20
49343;PMS5003;35210;41.606;-87.602;2023-06-14T00:47:21;31.00;29.80;17.60
49343;PMS5003;35210;41.606;-87.602;2023-06-14T00:49:50;29.40;28.80;18.40
49343;PMS5003;35210;41.606;-87.602;2023-06-14T00:52:19;25.80;25.80;20.60
49343;PMS5003;35210;41.606;-87.602;2023-06-14T00:54:49;41.80;34.40;22.40
49343;PMS5003;35210;41.606;-87.602;2023-06-14T00:57:17;45.80;35.00;20.80
49343;PMS5003;35210;41.606;-87.602;2023-06-14T00:59:47;33.00;30.00;21.00
49343;PMS5003;35210;41.606;-87.602;2023-06-14T01:02:17;32.00;31.40;19.20
49343;PMS5003;35210;41.606;-87.602;2023-06-14T01:04:46;41.60;34.80;23.40
49343;PMS5003;35210;41.606;-87.602;2023-06-14T01:07:20;31.60;29.60;19.20
49343;PMS5003;35210;41.606;-87.602;2023-06-14T01:10:00;30.80;28.40;18.20
49343;PMS5003;35210;41.606;-87.602;2023-06-14T01:12:42;27.80;27.80;18.20
49343;PMS5003;35210;41.606;-87.602;2023-06-14T01:15:16;34.40;30.80;19.60
49343;PMS5003;35210;41.606;-87.602;2023-06-14T01:17:47;30.80;29.20;19.60
49343;PMS5003;35210;41.606;-87.602;2023-06-14T01:20:19;29.80;28.00;17.80
49343;PMS5003;35210;41.606;-87.602;2023-06-14T01:22:53;33.80;28.20;19.40
49343;PMS5003;35210;41.606;-87.602;2023-06-14T01:25:21;28.60;25.00;20.20
49343;PMS5003;35210;41.606;-87.602;2023-06-14T01:27:51;26.80;25.60;17.00
49343;PMS5003;35210;41.606;-87.602;2023-06-14T01:30:20;25.20;21.60;14.80
49343;PMS5003;35210;41.606;-87.602;2023-06-14T01:32:50;22.20;19.40;10.40
49343;PMS5003;35210;41.606;-87.602;2023-06-14T01:35:21;27.20;22.80;16.20
49343;PMS5003;35210;41.606;-87.602;2023-06-14T01:37:50;33.00;27.40;17.40
49343;PMS5003;35210;41.606;-87.602;2023-06-14T01:40:21;25.00;23.20;14.40
49343;PMS5003;35210;41.606;-87.602;2023-06-14T01:42:51;25.60;24.40;16.60
49343;PMS5003;35210;41.606;-87.602;2023-06-14T01:45:20;24.60;24.00;16.20
49343;PMS5003;35210;41.606;-87.602;2023-06-14T01:47:50;22.00;18.40;15.40
49343;PMS5003;35210;41.606;-87.602;2023-06-14T01:50:19;24.80;20.60;14.00
49343;PMS5003;35210;41.606;-87.602;2023-06-14T01:52:48;26.60;23.20;15.00
49343;PMS5003;35210;41.606;-87.602;2023-06-14T01:55:18;26.40;26.40;17.20
49343;PMS5003;35210;41.606;-87.602;2023-06-14T01:57:47;25.20;22.00;15.60
49343;PMS5003;35210;41.606;-87.602;2023-06-14T02:00:16;23.20;21.00;14.60
49343;PMS5003;35210;41.606;-87.602;2023-06-14T02:02:46;25.60;24.00;14.80
49343;PMS5003;35210;41.606;-87.602;2023-06-14T02:05:15;29.20;25.60;16.00
49343;PMS5003;35210;41.606;-87.602;2023-06-14T02:07:47;29.60;25.80;15.60
49343;PMS5003;35210;41.606;-87.602;2023-06-14T02:13:09;26.60;23.80;14.80
49343;PMS5003;35210;41.606;-87.602;2023-06-14T02:15:38;26.00;25.60;16.20
49343;PMS5003;35210;41.606;-87.602;2023-06-14T02:18:09;27.80;26.80;16.00
49343;PMS5003;35210;41.606;-87.602;2023-06-14T02:20:38;28.80;23.60;14.40
49343;PMS5003;35210;41.606;-87.602;2023-06-14T02:23:07;27.60;25.00;17.20
49343;PMS5003;35210;41.606;-87.602;2023-06-14T02:25:35;25.80;24.40;18.20
49343;PMS5003;35210;41.606;-87.602;2023-06-14T02:28:07;29.40;28.60;19.00
49343;PMS5003;35210;41.606;-87.602;2023-06-14T02:30:36;34.80;31.20;19.60
49343;PMS5003;35210;41.606;-87.602;2023-06-14T02:33:04;27.60;26.20;18.20
49343;PMS5003;35210;41.606;-87.602;2023-06-14T02:35:38;32.40;25.80;18.00
49343;PMS5003;35210;41.606;-87.602;2023-06-14T02:38:07;32.20;29.80;18.00
49343;PMS5003;35210;41.606;-87.602;2023-06-14T02:40:37;32.00;28.40;18.80
49343;PMS5003;35210;41.606;-87.602;2023-06-14T02:43:10;29.20;26.20;18.20
49343;PMS5003;35210;41.606;-87.602;2023-06-14T02:45:38;30.20;29.20;20.20
49343;PMS5003;35210;41.606;-87.602;2023-06-14T02:48:07;32.00;28.80;17.60
49343;PMS5003;35210;41.606;-87.602;2023-06-14T02:50:36;26.40;26.40;16.80
49343;PMS5003;35210;41.606;-87.602;2023-06-14T02:53:04;31.00;27.40;17.40
49343;PMS5003;35210;41.606;-87.602;2023-06-14T02:55:32;29.80;29.60;17.60
49343;PMS5003;35210;41.606;-87.602;2023-06-14T02:58:04;27.80;26.60;17.20
49343;PMS5003;35210;41.606;-87.602;2023-06-14T03:00:34;24.80;21.60;15.20
49343;PMS5003;35210;41.606;-87.602;2023-06-14T03:03:03;31.40;28.40;17.80
49343;PMS5003;35210;41.606;-87.602;2023-06-14T03:05:40;25.40;21.60;14.20
49343;PMS5003;35210;41.606;-87.602;2023-06-14T03:08:11;23.60;23.60;16.00
49343;PMS5003;35210;41.606;-87.602;2023-06-14T03:10:42;32.00;28.80;16.40
49343;PMS5003;35210;41.606;-87.602;2023-06-14T03:13:10;29.20;27.20;14.60
49343;PMS5003;35210;41.606;-87.602;2023-06-14T03:15:40;26.00;22.00;15.60
49343;PMS5003;35210;41.606;-87.602;2023-06-14T03:18:10;25.00;23.80;15.20
49343;PMS5003;35210;41.606;-87.602;2023-06-14T03:20:40;25.20;23.40;15.40
49343;PMS5003;35210;41.606;-87.602;2023-06-14T03:23:10;28.60;27.00;17.60
49343;PMS5003;35210;41.606;-87.602;2023-06-14T03:25:39;31.00;29.80;19.20
49343;PMS5003;35210;41.606;-87.602;2023-06-14T03:28:07;28.40;27.80;17.00
49343;PMS5003;35210;41.606;-87.602;2023-06-14T03:30:35;26.20;25.00;14.00
49343;PMS5003;35210;41.606;-87.602;2023-06-14T03:33:05;24.60;24.20;14.40
49343;PMS5003;35210;41.606;-87.602;2023-06-14T03:35:34;28.80;26.40;16.40
49343;PMS5003;35210;41.606;-87.602;2023-06-14T03:38:02;30.00;28.60;18.20
49343;PMS5003;35210;41.606;-87.602;2023-06-14T03:40:30;27.40;26.60;17.80
49343;PMS5003;35210;41.606;-87.602;2023-06-14T03:42:58;32.60;28.60;17.60
49343;PMS5003;35210;41.606;-87.602;2023-06-14T03:45:27;29.80;29.20;16.60
49343;PMS5003;35210;41.606;-87.602;2023-06-14T03:47:55;31.80;28.20;17.80
49343;PMS5003;35210;41.606;-87.602;2023-06-14T03:50:27;25.20;23.20;15.60
49343;PMS5003;35210;41.606;-87.602;2023-06-14T03:52:56;27.40;21.80;15.40
49343;PMS5003;35210;41.606;-87.602;2023-06-14T03:55:24;22.20;20.40;15.80
49343;PMS5003;35210;41.606;-87.602;2023-06-14T03:57:53;30.60;29.20;20.40
49343;PMS5003;35210;41.606;-87.602;2023-06-14T04:00:21;39.40;32.00;21.20
49343;PMS5003;35210;41.606;-87.602;2023-06-14T04:02:49;30.80;29.20;17.80
49343;PMS5003;35210;41.606;-87.602;2023-06-14T04:05:17;30.60;29.00;17.40
49343;PMS5003;35210;41.606;-87.602;2023-06-14T04:07:47;30.20;28.00;18.20
49343;PMS5003;35210;41.606;-87.602;2023-06-14T04:10:16;32.80;31.00;21.20
49343;PMS5003;35210;41.606;-87.602;2023-06-14T04:12:45;31.60;31.20;19.60
49343;PMS5003;35210;41.606;-87.602;2023-06-14T04:15:14;34.00;31.00;19.80
49343;PMS5003;35210;41.606;-87.602;2023-06-14T04:17:42;33.20;30.40;20.40
49343;PMS5003;35210;41.606;-87.602;2023-06-14T04:20:10;33.80;29.40;17.00
49343;PMS5003;35210;41.606;-87.602;2023-06-14T04:22:38;35.00;30.40;19.60
49343;PMS5003;35210;41.606;-87.602;2023-06-14T04:25:11;33.80;27.60;16.20
49343;PMS5003;35210;41.606;-87.602;2023-06-14T04:27:39;28.80;28.40;18.00
49343;PMS5003;35210;41.606;-87.602;2023-06-14T04:30:07;30.20;27.20;19.40
49343;PMS5003;35210;41.606;-87.602;2023-06-14T04:32:36;34.80;33.40;21.40
49343;PMS5003;35210;41.606;-87.602;2023-06-14T04:35:05;33.40;29.40;19.80
49343;PMS5003;35210;41.606;-87.602;2023-06-14T04:37:33;32.00;30.40;18.60
49343;PMS5003;35210;41.606;-87.602;2023-06-14T04:40:06;32.20;28.40;17.60
49343;PMS5003;35210;41.606;-87.602;2023-06-14T04:42:36;37.20;33.20;21.40
49343;PMS5003;35210;41.606;-87.602;2023-06-14T04:45:06;31.60;29.60;20.20
49343;PMS5003;35210;41.606;-87.602;2023-06-14T04:47:35;30.20;30.00;19.20
49343;PMS5003;35210;41.606;-87.602;2023-06-14T04:50:04;35.60;32.60;20.40
49343;PMS5003;35210;41.606;-87.602;2023-06-14T04:52:32;34.40;31.20;20.20
49343;PMS5003;35210;41.606;-87.602;2023-06-14T04:55:01;34.00;29.20;17.00
49343;PMS5003;35210;41.606;-87.602;2023-06-14T04:57:29;33.40;30.60;19.60
49343;PMS5003;35210;41.606;-87.602;2023-06-14T04:59:59;36.60;32.40;19.80
49343;PMS5003;35210;41.606;-87.602;2023-06-14T05:02:29;33.60;31.00;19.80
49343;PMS5003;35210;41.606;-87.602;2023-06-14T05:04:57;34.20;31.40;20.40
49343;PMS5003;35210;41.606;-87.602;2023-06-14T05:07:27;35.00;30.60;17.40
49343;PMS5003;35210;41.606;-87.602;2023-06-14T05:09:55;31.00;30.00;17.80
49343;PMS5003;35210;41.606;-87.602;2023-06-14T05:12:23;29.00;27.40;19.60
49343;PMS5003;35210;41.606;-87.602;2023-06-14T05:14:52;30.20;27.60;16.40
49343;PMS5003;35210;41.606;-87.602;2023-06-14T05:17:22;30.40;30.00;19.40
49343;PMS5003;35210;41.606;-87.602;2023-06-14T05:19:50;35.20;33.20;21.40
49343;PMS5003;35210;41.606;-87.602;2023-06-14T05:22:18;34.60;31.40;20.40
49343;PMS5003;35210;41.606;-87.602;2023-06-14T05:24:46;33.20;31.20;20.20
49343;PMS5003;35210;41.606;-87.602;2023-06-14T05:27:14;33.00;30.60;19.40
49343;PMS5003;35210;41.606;-87.602;2023-06-14T05:29:43;32.80;30.00;20.20
49343;PMS5003;35210;41.606;-87.602;2023-06-14T05:32:11;35.20;32.20;22.60
49343;PMS5003;35210;41.606;-87.602;2023-06-14T05:34:41;33.20;30.60;19.40
49343;PMS5003;35210;41.606;-87.602;2023-06-14T05:37:10;35.20;32.40;21.00
49343;PMS5003;35210;41.606;-87.602;2023-06-14T05:39:38;32.80;31.20;19.40
49343;PMS5003;35210;41.606;-87.602;2023-06-14T05:42:06;35.20;32.40;21.20
49343;PMS5003;35210;41.606;-87.602;2023-06-14T05:44:35;32.00;28.20;18.00
49343;PMS5003;35210;41.606;-87.602;2023-06-14T05:47:03;37.75;34.25;23.25
49343;PMS5003;35210;41.606;-87.602;2023-06-14T05:49:32;34.40;29.00;19.60
49343;PMS5003;35210;41.606;-87.602;2023-06-14T05:52:02;36.80;32.40;20.80
49343;PMS5003;35210;41.606;-87.602;2023-06-14T05:54:30;36.40;34.20;22.00
49343;PMS5003;35210;41.606;-87.602;2023-06-14T05:56:58;39.60;34.80;22.40
49343;PMS5003;35210;41.606;-87.602;2023-06-14T05:59:27;35.40;32.40;21.00
49343;PMS5003;35210;41.606;-87.602;2023-06-14T06:01:55;34.00;28.80;20.60
49343;PMS5003;35210;41.606;-87.602;2023-06-14T06:04:23;29.20;27.20;18.20
49343;PMS5003;35210;41.606;-87.602;2023-06-14T06:06:51;29.60;28.40;20.80
49343;PMS5003;35210;41.606;-87.602;2023-06-14T06:09:21;35.40;30.80;20.00
49343;PMS5003;35210;41.606;-87.602;2023-06-14T06:11:50;27.60;25.80;17.00
49343;PMS5003;35210;41.606;-87.602;2023-06-14T06:14:18;32.20;31.00;19.60
49343;PMS5003;35210;41.606;-87.602;2023-06-14T06:16:46;37.00;33.00;21.60
49343;PMS5003;35210;41.606;-87.602;2023-06-14T06:19:14;33.40;31.40;19.80
49343;PMS5003;35210;41.606;-87.602;2023-06-14T06:21:42;29.20;25.40;16.60
49343;PMS5003;35210;41.606;-87.602;2023-06-14T06:24:10;25.80;25.20;19.40
49343;PMS5003;35210;41.606;-87.602;2023-06-14T06:26:40;28.80;28.80;19.40
49343;PMS5003;35210;41.606;-87.602;2023-06-14T06:29:08;31.60;28.40;17.40
49343;PMS5003;35210;41.606;-87.602;2023-06-14T06:31:38;30.20;27.60;18.60
49343;PMS5003;35210;41.606;-87.602;2023-06-14T06:34:06;33.20;31.20;20.20
49343;PMS5003;35210;41.606;-87.602;2023-06-14T06:36:34;30.80;27.60;18.20
49343;PMS5003;35210;41.606;-87.602;2023-06-14T06:39:02;33.80;29.00;18.20
49343;PMS5003;35210;41.606;-87.602;2023-06-14T06:41:35;35.20;31.60;18.60
49343;PMS5003;35210;41.606;-87.602;2023-06-14T06:44:06;35.80;30.60;19.80
49343;PMS5003;35210;41.606;-87.602;2023-06-14T06:46:36;29.60;27.60;18.40
49343;PMS5003;35210;41.606;-87.602;2023-06-14T06:49:06;29.60;26.00;16.80
49343;PMS5003;35210;41.606;-87.602;2023-06-14T06:51:35;32.60;30.40;20.20
49343;PMS5003;35210;41.606;-87.602;2023-06-14T06:54:03;25.40;25.40;14.60
49343;PMS5003;35210;41.606;-87.602;2023-06-14T06:56:32;29.00;27.20;18.60
49343;PMS5003;35210;41.606;-87.602;2023-06-14T06:59:00;31.40;30.20;18.80
49343;PMS5003;35210;41.606;-87.602;2023-06-14T07:01:30;30.40;27.80;18.40
49343;PMS5003;35210;41.606;-87.602;2023-06-14T07:03:59;33.00;28.60;19.20
49343;PMS5003;35210;41.606;-87.602;2023-06-14T07:06:28;30.00;28.20;15.60
49343;PMS5003;35210;41.606;-87.602;2023-06-14T07:08:56;29.60;28.80;18.60
49343;PMS5003;35210;41.606;-87.602;2023-06-14T07:11:26;30.40;25.20;15.00
49343;PMS5003;35210;41.606;-87.602;2023-06-14T07:13:54;30.40;29.60;19.20
49343;PMS5003;35210;41.606;-87.602;2023-06-14T07:16:22;23.80;23.20;15.40
49343;PMS5003;35210;41.606;-87.602;2023-06-14T07:18:52;24.40;23.20;16.40
49343;PMS5003;35210;41.606;-87.602;2023-06-14T07:21:20;19.40;19.40;13.20
49343;PMS5003;35210;41.606;-87.602;2023-06-14T07:23:48;20.40;17.00;12.00
49343;PMS5003;35210;41.606;-87.602;2023-06-14T07:26:17;19.00;17.60;11.80
49343;PMS5003;35210;41.606;-87.602;2023-06-14T07:28:45;18.00;15.80;11.00
49343;PMS5003;35210;41.606;-87.602;2023-06-14T07:31:14;15.80;15.20;11.00
49343;PMS5003;35210;41.606;-87.602;2023-06-14T07:33:43;13.00;10.80;8.00
49343;PMS5003;35210;41.606;-87.602;2023-06-14T07:36:13;12.60;11.40;8.20
49343;PMS5003;35210;41.606;-87.602;2023-06-14T07:38:43;15.20;14.20;8.60
49343;PMS5003;35210;41.606;-87.602;2023-06-14T07:41:11;13.80;13.80;9.20
49343;PMS5003;35210;41.606;-87.602;2023-06-14T07:43:39;12.00;11.20;7.00
49343;PMS5003;35210;41.606;-87.602;2023-06-14T07:46:07;9.40;9.40;7.00
49343;PMS5003;35210;41.606;-87.602;2023-06-14T07:48:36;9.40;9.40;7.40
49343;PMS5003;35210;41.606;-87.602;2023-06-14T07:51:04;8.60;8.20;6.80
49343;PMS5003;35210;41.606;-87.602;2023-06-14T07:53:33;13.40;11.40;7.00
49343;PMS5003;35210;41.606;-87.602;2023-06-14T07:56:03;14.00;12.80;8.40
49343;PMS5003;35210;41.606;-87.602;2023-06-14T07:58:31;11.00;9.80;6.00
49343;PMS5003;35210;41.606;-87.602;2023-06-14T08:00:59;7.60;7.40;3.20
49343;PMS5003;35210;41.606;-87.602;2023-06-14T08:03:31;10.60;10.60;6.60
49343;PMS5003;35210;41.606;-87.602;2023-06-14T08:05:59;5.40;5.40;5.40
49343;PMS5003;35210;41.606;-87.602;2023-06-14T08:08:28;11.40;11.20;7.80
49343;PMS5003;35210;41.606;-87.602;2023-06-14T08:10:58;7.20;7.20;6.00
49343;PMS5003;35210;41.606;-87.602;2023-06-14T08:13:26;10.20;10.20;7.40
49343;PMS5003;35210;41.606;-87.602;2023-06-14T08:15:54;10.80;9.00;6.00
49343;PMS5003;35210;41.606;-87.602;2023-06-14T08:18:23;10.20;9.20;7.60
49343;PMS5003;35210;41.606;-87.602;2023-06-14T08:20:52;10.60;9.60;7.00
49343;PMS5003;35210;41.606;-87.602;2023-06-14T08:23:20;11.80;10.60;7.00
49343;PMS5003;35210;41.606;-87.602;2023-06-14T08:25:48;8.60;8.60;6.20
49343;PMS5003;35210;41.606;-87.602;2023-06-14T08:28:18;13.40;12.00;8.40
49343;PMS5003;35210;41.606;-87.602;2023-06-14T08:30:47;13.00;11.20;8.00
49343;PMS5003;35210;41.606;-87.602;2023-06-14T08:33:15;11.40;10.40;7.20
49343;PMS5003;35210;41.606;-87.602;2023-06-14T08:35:44;12.20;11.60;8.60
49343;PMS5003;35210;41.606;-87.602;2023-06-14T08:38:12;15.00;11.80;8.20
49343;PMS5003;35210;41.606;-87.602;2023-06-14T08:40:40;10.60;10.60;8.00
49343;PMS5003;35210;41.606;-87.602;2023-06-14T08:43:09;7.80;7.80;5.80
49343;PMS5003;35210;41.606;-87.602;2023-06-14T08:45:38;10.00;10.00;6.00
49343;PMS5003;35210;41.606;-87.602;2023-06-14T08:48:07;12.40;10.00;6.20
49343;PMS5003;35210;41.606;-87.602;2023-06-14T08:50:35;11.80;11.80;7.80
49343;PMS5003;35210;41.606;-87.602;2023-06-14T08:53:07;17.40;14.80;9.60
49343;PMS5003;35210;41.606;-87.602;2023-06-14T08:55:38;14.00;14.00;8.00
49343;PMS5003;35210;41.606;-87.602;2023-06-14T08:58:07;15.20;13.40;8.20
49343;PMS5003;35210;41.606;-87.602;2023-06-14T09:00:42;10.00;10.00;6.40
49343;PMS5003;35210;41.606;-87.602;2023-06-14T09:03:10;12.40;11.00;7.00
49343;PMS5003;35210;41.606;-87.602;2023-06-14T09:05:40;11.80;11.20;8.40
49343;PMS5003;35210;41.606;-87.602;2023-06-14T09:08:08;15.80;15.00;10.60
49343;PMS5003;35210;41.606;-87.602;2023-06-14T09:10:36;16.20;14.80;9.00
49343;PMS5003;35210;41.606;-87.602;2023-06-14T09:13:06;13.40;13.40;9.80
49343;PMS5003;35210;41.606;-87.602;2023-06-14T09:15:34;14.40;14.40;9.20
49343;PMS5003;35210;41.606;-87.602;2023-06-14T09:18:04;10.40;9.60;6.60
49343;PMS5003;35210;41.606;-87.602;2023-06-14T09:20:32;13.00;13.00;8.00
49343;PMS5003;35210;41.606;-87.602;2023-06-14T09:23:03;15.00;13.00;8.00
49343;PMS5003;35210;41.606;-87.602;2023-06-14T09:25:33;13.20;11.60;8.00
49343;PMS5003;35210;41.606;-87.602;2023-06-14T09:28:08;15.40;15.00;10.20
49343;PMS5003;35210;41.606;-87.602;2023-06-14T09:30:37;15.20;14.40;8.60
49343;PMS5003;35210;41.606;-87.602;2023-06-14T09:33:06;12.60;12.60;9.20
49343;PMS5003;35210;41.606;-87.602;2023-06-14T09:35:34;12.40;12.40;6.60
49343;PMS5003;35210;41.606;-87.602;2023-06-14T09:38:03;14.80;13.80;8.00
49343;PMS5003;35210;41.606;-87.602;2023-06-14T09:40:33;14.00;10.60;6.40
49343;PMS5003;35210;41.606;-87.602;2023-06-14T09:43:13;11.20;11.20;8.80
49343;PMS5003;35210;41.606;-87.602;2023-06-14T09:45:42;12.20;11.00;6.40
49343;PMS5003;35210;41.606;-87.602;2023-06-14T09:48:14;14.40;13.40;9.20
49343;PMS5003;35210;41.606;-87.602;2023-06-14T09:50:44;13.80;13.40;8.20
49343;PMS5003;35210;41.606;-87.602;2023-06-14T09:53:14;12.20;12.20;8.40
49343;PMS5003;35210;41.606;-87.602;2023-06-14T09:55:42;14.80;13.60;9.20
49343;PMS5003;35210;41.606;-87.602;2023-06-14T09:58:12;15.40;14.20;9.00
49343;PMS5003;35210;41.606;-87.602;2023-06-14T10:00:42;14.00;14.00;7.80
49343;PMS5003;35210;41.606;-87.602;2023-06-14T10:03:14;14.40;14.40;10.00
49343;PMS5003;35210;41.606;-87.602;2023-06-14T10:05:51;9.60;9.60;5.80
49343;PMS5003;35210;41.606;-87.602;2023-06-14T10:08:23;16.60;15.00;10.00
49343;PMS5003;35210;41.606;-87.602;2023-06-14T10:10:53;12.40;12.20;8.00
49343;PMS5003;35210;41.606;-87.602;2023-06-14T10:13:23;15.20;11.40;7.00
49343;PMS5003;35210;41.606;-87.602;2023-06-14T10:15:54;17.60;14.20;9.00
49343;PMS5003;35210;41.606;-87.602;2023-06-14T10:18:35;14.00;12.60;8.40
49343;PMS5003;35210;41.606;-87.602;2023-06-14T10:21:15;13.20;11.60;6.60
49343;PMS5003;35210;41.606;-87.602;2023-06-14T10:23:49;10.00;10.00;6.80
49343;PMS5003;35210;41.606;-87.602;2023-06-14T10:26:22;12.40;10.60;7.80
49343;PMS5003;35210;41.606;-87.602;2023-06-14T10:28:59;11.60;10.80;8.00
49343;PMS5003;35210;41.606;-87.602;2023-06-14T10:31:41;10.00;10.00;8.00
49343;PMS5003;35210;41.606;-87.602;2023-06-14T10:34:12;14.00;12.60;9.40
49343;PMS5003;35210;41.606;-87.602;2023-06-14T10:37:03;12.00;12.00;9.00
49343;PMS5003;35210;41.606;-87.602;2023-06-14T10:39:33;9.80;9.80;6.40
49343;PMS5003;35210;41.606;-87.602;2023-06-14T10:42:05;12.40;12.20;10.00
49343;PMS5003;35210;41.606;-87.602;2023-06-14T10:44:40;12.00;12.00;7.00
49343;PMS5003;35210;41.606;-87.602;2023-06-14T10:47:10;11.20;9.80;6.20
49343;PMS5003;35210;41.606;-87.602;2023-06-14T10:49:50;8.00;7.60;5.20
49343;PMS5003;35210;41.606;-87.602;2023-06-14T10:52:21;9.80;9.80;6.60
49343;PMS5003;35210;41.606;-87.602;2023-06-14T10:55:04;10.80;10.80;7.40
49343;PMS5003;35210;41.606;-87.602;2023-06-14T10:57:35;10.60;10.20;6.80
49343;PMS5003;35210;41.606;-87.602;2023-06-14T11:00:04;9.20;8.00;7.00
49343;PMS5003;35210;41.606;-87.602;2023-06-14T11:05:52;11.20;8.40;5.60
49343;PMS5003;35210;41.606;-87.602;2023-06-14T11:08:27;8.40;8.40;5.20
49343;PMS5003;35210;41.606;-87.602;2023-06-14T11:11:13;9.40;9.40;5.40
49343;PMS5003;35210;41.606;-87.602;2023-06-14T11:13:45;6.60;6.60;5.00
49343;PMS5003;35210;41.606;-87.602;2023-06-14T11:16:14;8.00;7.60;5.60
49343;PMS5003;35210;41.606;-87.602;2023-06-14T11:18:44;8.60;8.60;6.60
49343;PMS5003;35210;41.606;-87.602;2023-06-14T11:21:16;7.20;6.60;5.20
49343;PMS5003;35210;41.606;-87.602;2023-06-14T11:23:49;11.60;10.80;6.40
49343;PMS5003;35210;41.606;-87.602;2023-06-14T11:26:26;11.20;10.80;7.80
49343;PMS5003;35210;41.606;-87.602;2023-06-14T11:28:57;7.00;7.00;5.00
49343;PMS5003;35210;41.606;-87.602;2023-06-14T11:31:27;9.40;8.80;6.40
49343;PMS5003;35210;41.606;-87.602;2023-06-14T11:33:56;7.40;7.40;4.60
49343;PMS5003;35210;41.606;-87.602;2023-06-14T11:36:28;8.20;8.20;5.00
49343;PMS5003;35210;41.606;-87.602;2023-06-14T11:38:59;4.20;4.20;2.40
49343;PMS5003;35210;41.606;-87.602;2023-06-14T11:41:38;8.80;8.80;5.80
49343;PMS5003;35210;41.606;-87.602;2023-06-14T11:44:08;9.60;8.60;5.60
49343;PMS5003;35210;41.606;-87.602;2023-06-14T11:46:37;6.20;6.20;4.60
49343;PMS5003;35210;41.606;-87.602;2023-06-14T11:49:06;11.20;9.00;6.60
49343;PMS5003;35210;41.606;-87.602;2023-06-14T11:51:37;15.60;9.80;5.20
49343;PMS5003;35210;41.606;-87.602;2023-06-14T11:54:05;7.00;7.00;5.80
49343;PMS5003;35210;41.606;-87.602;2023-06-14T11:56:36;6.80;6.80;4.80
49343;PMS5003;35210;41.606;-87.602;2023-06-14T11:59:04;6.80;6.80;3.40
49343;PMS5003;35210;41.606;-87.602;2023-06-14T12:01:37;5.60;5.00;2.60
49343;PMS5003;35210;41.606;-87.602;2023-06-14T12:04:05;5.80;5.80;4.20
49343;PMS5003;35210;41.606;-87.602;2023-06-14T12:06:34;9.40;7.80;5.20
49343;PMS5003;35210;41.606;-87.602;2023-06-14T12:09:05;8.60;7.00;5.20
49343;PMS5003;35210;41.606;-87.602;2023-06-14T12:11:38;6.60;6.60;5.60
49343;PMS5003;35210;41.606;-87.602;2023-06-14T12:14:07;8.60;7.40;4.80
49343;PMS5003;35210;41.606;-87.602;2023-06-14T12:16:37;6.60;6.00;3.80
49343;PMS5003;35210;41.606;-87.602;2023-06-14T12:19:11;7.00;6.80;4.80
49343;PMS5003;35210;41.606;-87.602;2023-06-14T12:21:42;8.00;8.00;5.00
49343;PMS5003;35210;41.606;-87.602;2023-06-14T12:24:12;8.40;7.20;5.00
49343;PMS5003;35210;41.606;-87.602;2023-06-14T12:26:40;7.40;7.40;5.80
49343;PMS5003;35210;41.606;-87.602;2023-06-14T12:29:09;8.00;8.00;6.00
49343;PMS5003;35210;41.606;-87.602;2023-06-14T12:31:37;13.00;9.40;5.00
49343;PMS5003;35210;41.606;-87.602;2023-06-14T12:34:05;11.60;8.40;5.60
49343;PMS5003;35210;41.606;-87.602;2023-06-14T12:36:34;8.00;8.00;5.60
49343;PMS5003;35210;41.606;-87.602;2023-06-14T12:39:08;7.80;7.80;5.80
49343;PMS5003;35210;41.606;-87.602;2023-06-14T12:41:37;7.80;7.00;6.00
49343;PMS5003;35210;41.606;-87.602;2023-06-14T12:44:06;11.20;10.60;6.20
49343;PMS5003;35210;41.606;-87.602;2023-06-14T12:46:34;9.60;9.40;6.20
49343;PMS5003;35210;41.606;-87.602;2023-06-14T12:49:05;9.60;9.60;6.20
49343;PMS5003;35210;41.606;-87.602;2023-06-14T12:51:33;6.80;6.20;4.00
49343;PMS5003;35210;41.606;-87.602;2023-06-14T12:54:02;7.60;7.20;5.00
49343;PMS5003;35210;41.606;-87.602;2023-06-14T12:56:31;8.60;8.20;5.80
49343;PMS5003;35210;41.606;-87.602;2023-06-14T12:59:00;9.60;9.60;5.40
49343;PMS5003;35210;41.606;-87.602;2023-06-14T13:01:28;8.60;7.20;5.00
49343;PMS5003;35210;41.606;-87.602;2023-06-14T13:03:56;11.00;9.00;5.40
49343;PMS5003;35210;41.606;-87.602;2023-06-14T13:06:25;10.60;10.60;6.80
49343;PMS5003;35210;41.606;-87.602;2023-06-14T13:08:55;11.40;9.80;7.00
49343;PMS5003;35210;41.606;-87.602;2023-06-14T13:11:24;9.60;8.80;6.20
49343;PMS5003;35210;41.606;-87.602;2023-06-14T13:13:54;9.00;9.00;5.80
49343;PMS5003;35210;41.606;-87.602;2023-06-14T13:16:22;8.60;8.60;6.20
49343;PMS5003;35210;41.606;-87.602;2023-06-14T13:18:50;9.00;9.00;7.00
49343;PMS5003;35210;41.606;-87.602;2023-06-14T13:21:18;7.60;7.40;5.40
49343;PMS5003;35210;41.606;-87.602;2023-06-14T13:23:46;10.40;9.40;6.40
49343;PMS5003;35210;41.606;-87.602;2023-06-14T13:26:14;9.80;9.00;6.40
49343;PMS5003;35210;41.606;-87.602;2023-06-14T13:28:43;8.60;8.00;6.00
49343;PMS5003;35210;41.606;-87.602;2023-06-14T13:31:13;11.00;11.00;8.00
49343;PMS5003;35210;41.606;-87.602;2023-06-14T13:33:41;11.00;9.80;8.00
49343;PMS5003;35210;41.606;-87.602;2023-06-14T13:36:09;11.20;9.20;6.60
49343;PMS5003;35210;41.606;-87.602;2023-06-14T13:38:38;11.40;11.40;7.20
49343;PMS5003;35210;41.606;-87.602;2023-06-14T13:41:06;11.00;10.20;7.00
49343;PMS5003;35210;41.606;-87.602;2023-06-14T13:43:34;11.40;11.40;7.80
49343;PMS5003;35210;41.606;-87.602;2023-06-14T13:46:02;9.80;9.80;7.00
49343;PMS5003;35210;41.606;-87.602;2023-06-14T13:48:32;9.00;9.00;6.60
49343;PMS5003;35210;41.606;-87.602;2023-06-14T13:51:01;9.00;9.00;6.00
49343;PMS5003;35210;41.606;-87.602;2023-06-14T13:53:29;9.20;9.20;5.80